Terminal Aerodrome Forecast
Issued by NWS Sioux Falls, SD

Home | Current Version | Previous Version | Text Only | Print | Product List | Glossary On
Versions: 1 2 3 4 5 6 7 8 9 10 11 12 13 14 15
333
FTUS43 KFSD 181720
TAFHON
TAF
KHON 181720Z 1818/1918 07011KT P6SM SCT090 BKN140
     FM182000 06012KT P6SM SCT120
     FM190400 07006KT P6SM SCT140
     FM191200 10007KT P6SM SCT070
     FM191400 13012KT P6SM SCT110=

USA.gov is the U.S. government's official web portal to all federal, state and local government web resources and services.